Time;durP1;ratioP1;P1;durP2;ratioP2;P2;SDS_P1;SDS_P2;PMS_P1;PMS_P2;Temp;Humidity;BMP_temperature;BMP_pressure;BME280_temperature;BME280_humidity;BME280_pressure;Samples;Min_cycle;Max_cycle;Signal;HPM_P1;HPM_P2
2022/07/16 00:03:47;;;;;;;8.75;4.47;;;15.10;99.90;;;;;;5072821;28;20123;-58
2022/07/16 00:06:13;;;;;;;8.30;4.15;;;15.10;99.90;;;;;;5072627;28;20428;-57
2022/07/16 00:08:38;;;;;;;8.70;4.15;;;15.10;99.90;;;;;;5072648;28;20554;-58
2022/07/16 00:11:04;;;;;;;9.57;4.43;;;15.10;99.90;;;;;;5071067;28;20419;-57
2022/07/16 00:13:30;;;;;;;9.60;4.43;;;15.20;99.90;;;;;;5072572;28;20060;-58
2022/07/16 00:15:56;;;;;;;9.65;4.20;;;15.20;99.90;;;;;;5071430;28;20477;-58
2022/07/16 00:21:06;;;;;;;10.13;4.90;;;15.30;99.90;;;;;;5062063;28;20048;-58
2022/07/16 00:23:31;;;;;;;9.30;4.43;;;15.20;99.90;;;;;;5052168;28;20040;-58
2022/07/16 00:25:57;;;;;;;9.07;4.65;;;15.30;99.90;;;;;;5052518;28;20060;-58
2022/07/16 00:28:23;;;;;;;12.95;5.47;;;15.30;99.90;;;;;;5052417;28;20053;-58
2022/07/16 00:30:48;;;;;;;11.25;5.43;;;15.20;99.90;;;;;;5052167;28;20044;-58
2022/07/16 00:33:14;;;;;;;10.90;5.18;;;15.10;99.90;;;;;;5052417;28;20033;-58
2022/07/16 00:35:40;;;;;;;10.30;3.63;;;15.00;99.90;;;;;;5052344;28;20094;-58
2022/07/16 00:38:07;;;;;;;8.95;2.95;;;15.00;99.90;;;;;;5051137;28;20044;-56
2022/07/16 00:40:33;;;;;;;8.23;2.90;;;14.90;99.90;;;;;;5052357;28;20045;-57
2022/07/16 00:42:59;;;;;;;11.48;3.50;;;14.90;99.90;;;;;;5052365;28;20040;-57
2022/07/16 00:45:25;;;;;;;8.82;2.45;;;14.70;99.90;;;;;;5052077;28;20052;-57
2022/07/16 00:47:51;;;;;;;9.57;3.45;;;14.80;99.90;;;;;;5052011;28;20116;-57
2022/07/16 00:50:17;;;;;;;9.77;3.38;;;14.70;99.90;;;;;;5052155;28;20112;-57
2022/07/16 00:52:42;;;;;;;6.93;2.90;;;14.70;99.90;;;;;;5069052;28;20033;-57
2022/07/16 00:55:09;;;;;;;9.25;3.50;;;14.70;99.90;;;;;;5071925;28;20396;-57
2022/07/16 00:57:35;;;;;;;10.98;4.40;;;14.80;99.90;;;;;;5072315;28;20036;-55
2022/07/16 01:00:00;;;;;;;11.13;4.30;;;14.80;99.90;;;;;;5071837;28;20055;-55
2022/07/16 01:02:26;;;;;;;10.75;4.38;;;14.80;99.90;;;;;;5072019;28;20036;-56
2022/07/16 01:04:52;;;;;;;10.75;4.03;;;14.70;99.90;;;;;;5071695;28;20048;-56
2022/07/16 01:07:18;;;;;;;10.35;4.18;;;14.80;99.90;;;;;;5072217;28;20413;-56
2022/07/16 01:09:46;;;;;;;10.00;2.65;;;14.80;99.90;;;;;;5072099;28;20036;-56
2022/07/16 01:12:11;;;;;;;6.60;2.20;;;14.90;99.90;;;;;;5071985;28;20094;-56
2022/07/16 01:14:37;;;;;;;9.13;2.58;;;14.80;99.90;;;;;;5071852;28;20040;-57
2022/07/16 01:17:03;;;;;;;8.52;2.60;;;14.90;99.90;;;;;;5072026;28;20036;-57
2022/07/16 01:19:29;;;;;;;12.20;3.13;;;15.00;99.90;;;;;;5071977;28;20127;-56
2022/07/16 01:21:55;;;;;;;9.85;2.58;;;14.90;99.90;;;;;;5054235;28;20103;-57
2022/07/16 01:24:20;;;;;;;9.27;2.50;;;14.90;99.90;;;;;;5053086;28;20056;-56
2022/07/16 01:26:46;;;;;;;8.88;2.78;;;14.90;99.90;;;;;;5071008;28;20049;-58
2022/07/16 01:29:12;;;;;;;9.07;4.32;;;14.90;99.90;;;;;;5055594;28;20075;-57
2022/07/16 01:31:37;;;;;;;5.60;2.22;;;15.00;99.90;;;;;;5055334;28;20481;-57
2022/07/16 01:36:54;;;;;;;7.70;2.75;;;15.00;99.90;;;;;;5055570;28;20404;-57
2022/07/16 01:39:21;;;;;;;8.10;2.70;;;14.80;99.90;;;;;;5055377;28;20035;-56
2022/07/16 01:41:52;;;;;;;7.68;2.17;;;14.80;99.90;;;;;;5055396;28;20044;-56
2022/07/16 01:44:17;;;;;;;7.85;2.72;;;15.00;99.90;;;;;;5055440;28;20045;-56
2022/07/16 01:46:43;;;;;;;6.55;1.90;;;14.80;99.90;;;;;;5054993;28;20045;-56
2022/07/16 01:49:09;;;;;;;8.40;2.55;;;15.00;99.90;;;;;;5055303;28;20060;-56
2022/07/16 01:51:35;;;;;;;8.48;2.00;;;14.90;99.90;;;;;;5055072;28;20030;-57
2022/07/16 01:54:00;;;;;;;8.52;2.40;;;14.80;99.90;;;;;;5053638;28;20643;-57
2022/07/16 01:56:26;;;;;;;9.00;2.10;;;14.90;99.90;;;;;;5055092;28;20041;-57
2022/07/16 01:58:52;;;;;;;6.45;2.28;;;14.90;99.90;;;;;;5054730;28;20072;-57
2022/07/16 02:01:17;;;;;;;8.55;2.17;;;14.90;99.90;;;;;;5054724;28;20059;-58
2022/07/16 02:03:43;;;;;;;8.35;2.88;;;14.80;99.90;;;;;;5054882;28;20045;-57
2022/07/16 02:06:08;;;;;;;8.30;2.17;;;14.80;99.90;;;;;;5054977;28;20109;-57
2022/07/16 02:08:34;;;;;;;6.97;2.15;;;14.70;99.90;;;;;;5054931;28;20041;-58
2022/07/16 02:11:00;;;;;;;9.32;2.05;;;14.60;99.90;;;;;;5054801;28;20548;-57
2022/07/16 02:13:25;;;;;;;6.60;2.20;;;14.70;99.90;;;;;;5054697;28;20029;-57
2022/07/16 02:15:51;;;;;;;8.90;2.53;;;14.60;99.90;;;;;;5054736;28;20037;-58
2022/07/16 02:18:17;;;;;;;6.25;2.10;;;14.60;99.90;;;;;;5054814;28;20115;-57
2022/07/16 02:20:42;;;;;;;8.25;2.40;;;14.50;99.90;;;;;;5054623;28;20076;-57
2022/07/16 02:23:08;;;;;;;5.20;1.80;;;14.50;99.90;;;;;;5054402;28;20091;-57
2022/07/16 02:25:34;;;;;;;7.30;2.08;;;14.40;99.90;;;;;;5052890;28;20505;-57
2022/07/16 02:28:05;;;;;;;9.57;2.22;;;14.50;99.90;;;;;;5054632;28;20713;-57
2022/07/16 02:30:32;;;;;;;5.65;1.88;;;14.40;99.90;;;;;;5054225;28;20485;-57
2022/07/16 02:32:58;;;;;;;6.68;1.67;;;14.40;99.90;;;;;;5053087;28;20079;-57
2022/07/16 02:35:24;;;;;;;8.95;2.42;;;14.40;99.90;;;;;;5053673;28;20134;-57
2022/07/16 02:37:49;;;;;;;8.15;2.25;;;14.30;99.90;;;;;;5054051;28;20049;-57
2022/07/16 02:40:15;;;;;;;6.65;2.28;;;14.20;99.90;;;;;;5054086;28;20045;-57
2022/07/16 02:42:42;;;;;;;6.28;2.22;;;14.20;99.90;;;;;;5054045;28;20404;-57
2022/07/16 02:45:08;;;;;;;5.35;2.00;;;14.20;99.90;;;;;;5053857;28;20037;-57
2022/07/16 02:47:35;;;;;;;6.45;2.08;;;14.10;99.90;;;;;;5054219;28;20040;-57
2022/07/16 02:50:00;;;;;;;10.23;2.63;;;14.10;99.90;;;;;;5054205;28;20043;-57
2022/07/16 02:52:26;;;;;;;7.57;2.30;;;14.10;99.90;;;;;;5068469;28;20404;-57
2022/07/16 02:54:52;;;;;;;6.63;2.10;;;14.00;99.90;;;;;;5073806;28;20036;-57
2022/07/16 02:57:17;;;;;;;5.72;2.03;;;14.00;99.90;;;;;;5074012;28;20119;-57
2022/07/16 02:59:43;;;;;;;7.93;2.22;;;14.00;99.90;;;;;;5072380;28;20032;-57
2022/07/16 03:02:09;;;;;;;7.20;2.55;;;14.00;99.90;;;;;;5073891;28;20373;-57
2022/07/16 03:04:34;;;;;;;6.05;2.53;;;14.00;99.90;;;;;;5072566;28;20516;-57
2022/07/16 03:07:00;;;;;;;7.55;2.97;;;13.90;99.90;;;;;;5073793;28;20051;-57
2022/07/16 03:09:25;;;;;;;7.65;2.47;;;13.90;99.90;;;;;;5073865;28;20040;-57
2022/07/16 03:11:51;;;;;;;10.20;3.15;;;13.80;99.90;;;;;;5073727;28;20044;-57
2022/07/16 03:14:17;;;;;;;7.88;2.78;;;13.80;99.90;;;;;;5072018;28;20055;-57
2022/07/16 03:16:42;;;;;;;10.40;3.20;;;13.90;99.90;;;;;;5072198;28;20044;-57
2022/07/16 03:19:08;;;;;;;9.88;3.20;;;13.80;99.90;;;;;;5073495;28;20041;-57
2022/07/16 03:21:34;;;;;;;8.05;2.90;;;13.80;99.90;;;;;;5059002;28;20045;-57
2022/07/16 03:24:00;;;;;;;9.85;2.70;;;13.80;99.90;;;;;;5053114;28;20473;-57
2022/07/16 03:26:26;;;;;;;8.20;2.80;;;13.80;99.90;;;;;;5053166;28;20563;-57
2022/07/16 03:28:51;;;;;;;10.25;2.95;;;13.80;99.90;;;;;;5053385;28;20041;-57
2022/07/16 03:31:17;;;;;;;8.55;3.03;;;13.80;99.90;;;;;;5053385;28;20043;-58
2022/07/16 03:33:43;;;;;;;8.07;2.40;;;13.70;99.90;;;;;;5053169;28;20041;-57
2022/07/16 03:36:10;;;;;;;8.07;2.60;;;13.80;99.90;;;;;;5068623;28;20049;-57
2022/07/16 03:41:20;;;;;;;9.15;2.63;;;13.80;99.90;;;;;;5053159;28;20401;-57
2022/07/16 03:43:46;;;;;;;9.50;3.38;;;13.80;99.90;;;;;;5053230;28;20040;-57
2022/07/16 03:46:13;;;;;;;8.63;2.58;;;13.70;99.90;;;;;;5052355;28;20041;-56
2022/07/16 03:48:39;;;;;;;10.75;3.08;;;13.70;99.90;;;;;;5053113;28;20413;-57
2022/07/16 03:51:06;;;;;;;10.18;3.42;;;13.70;99.90;;;;;;5056278;28;20431;-58
2022/07/16 03:53:33;;;;;;;9.35;3.10;;;13.60;99.90;;;;;;5072659;28;20110;-58
2022/07/16 03:55:59;;;;;;;8.95;3.17;;;13.60;99.90;;;;;;5072512;28;20124;-58
2022/07/16 03:58:26;;;;;;;9.00;2.47;;;13.50;99.90;;;;;;5072878;28;20124;-58
2022/07/16 04:00:52;;;;;;;12.02;2.58;;;13.50;99.90;;;;;;5072833;28;20045;-58
2022/07/16 04:03:18;;;;;;;7.95;2.25;;;13.60;99.90;;;;;;5072548;28;20087;-58
2022/07/16 04:05:43;;;;;;;11.23;3.05;;;13.70;99.90;;;;;;5072532;28;20072;-58
2022/07/16 04:08:09;;;;;;;6.78;2.45;;;13.70;99.90;;;;;;5072715;28;20036;-57
2022/07/16 04:10:34;;;;;;;8.43;1.90;;;13.80;99.90;;;;;;5072400;28;20072;-57
2022/07/16 04:13:00;;;;;;;11.02;2.47;;;13.80;99.90;;;;;;5072628;28;20040;-58
2022/07/16 04:15:26;;;;;;;11.55;2.67;;;13.80;99.90;;;;;;5072619;28;20054;-58
2022/07/16 04:17:51;;;;;;;11.23;2.00;;;13.90;99.90;;;;;;5072348;28;20040;-58
2022/07/16 04:20:17;;;;;;;8.07;1.75;;;13.90;99.90;;;;;;5068307;28;20439;-58
2022/07/16 04:22:43;;;;;;;8.80;1.65;;;13.90;99.90;;;;;;5052287;28;20049;-58
2022/07/16 04:25:08;;;;;;;6.68;1.73;;;13.90;99.90;;;;;;5050669;28;20057;-58
2022/07/16 04:27:34;;;;;;;8.13;1.60;;;14.00;99.90;;;;;;5052662;28;20397;-58
2022/07/16 04:30:00;;;;;;;10.65;1.85;;;14.00;99.90;;;;;;5052412;28;20041;-58
2022/07/16 04:32:25;;;;;;;9.55;1.70;;;14.10;99.90;;;;;;5051350;28;20037;-58
2022/07/16 04:34:51;;;;;;;10.23;2.13;;;14.20;99.90;;;;;;5052079;28;20045;-58
2022/07/16 04:37:17;;;;;;;11.40;2.10;;;14.10;99.90;;;;;;5052203;28;20076;-58
2022/07/16 04:39:43;;;;;;;9.80;2.10;;;14.20;99.90;;;;;;5051958;28;20043;-57
2022/07/16 04:42:08;;;;;;;8.85;1.83;;;14.20;99.90;;;;;;5052058;28;20048;-59
2022/07/16 04:44:34;;;;;;;8.57;1.80;;;14.30;99.90;;;;;;5052257;28;20041;-58
2022/07/16 04:46:59;;;;;;;7.07;1.60;;;14.30;99.90;;;;;;5052224;28;20473;-58
2022/07/16 04:49:25;;;;;;;8.32;2.05;;;14.40;99.90;;;;;;5052313;28;20049;-58
2022/07/16 04:51:51;;;;;;;5.07;1.50;;;14.50;99.90;;;;;;5061667;28;20036;-57
2022/07/16 04:54:16;;;;;;;8.20;1.50;;;14.50;99.90;;;;;;5071858;28;20052;-54
2022/07/16 04:56:42;;;;;;;10.75;1.65;;;14.60;99.90;;;;;;5072149;28;20040;-56
2022/07/16 04:59:08;;;;;;;8.35;1.75;;;14.60;99.90;;;;;;5073409;28;20044;-58
2022/07/16 05:01:33;;;;;;;6.45;1.25;;;14.60;99.90;;;;;;5075413;28;20499;-58
2022/07/16 05:03:59;;;;;;;8.32;1.48;;;14.60;99.90;;;;;;5073221;28;20068;-58
2022/07/16 05:06:24;;;;;;;6.45;1.73;;;14.50;99.90;;;;;;5074759;28;20037;-59
2022/07/16 05:08:50;;;;;;;8.38;1.40;;;14.60;99.90;;;;;;5074789;28;20037;-59
2022/07/16 05:11:16;;;;;;;8.73;1.55;;;14.70;99.90;;;;;;5075212;28;20037;-58
2022/07/16 05:13:41;;;;;;;8.30;1.58;;;14.60;99.90;;;;;;5075047;28;20039;-59
2022/07/16 05:16:07;;;;;;;7.28;1.30;;;14.70;99.90;;;;;;5075203;28;20083;-58
2022/07/16 05:18:33;;;;;;;6.10;1.25;;;14.70;99.90;;;;;;5074968;28;20075;-59
2022/07/16 05:20:58;;;;;;;7.80;1.30;;;14.70;99.90;;;;;;5065438;28;20059;-59
2022/07/16 05:23:24;;;;;;;8.70;1.98;;;14.80;99.90;;;;;;5054815;28;20389;-59
2022/07/16 05:25:49;;;;;;;9.57;1.38;;;14.80;99.90;;;;;;5054365;28;20079;-59
2022/07/16 05:28:15;;;;;;;8.43;1.52;;;14.80;99.90;;;;;;5054401;28;20114;-58
2022/07/16 05:30:41;;;;;;;7.93;1.85;;;14.80;99.90;;;;;;5054592;28;20037;-58
2022/07/16 05:33:06;;;;;;;7.32;1.13;;;14.90;99.90;;;;;;5053018;28;20195;-58
2022/07/16 05:35:32;;;;;;;6.60;1.45;;;15.00;99.90;;;;;;5054238;28;20076;-58
2022/07/16 05:37:58;;;;;;;9.18;1.60;;;15.00;99.90;;;;;;5054631;28;20158;-59
2022/07/16 05:40:23;;;;;;;6.75;1.38;;;15.10;99.90;;;;;;5054409;28;20096;-59
2022/07/16 05:42:49;;;;;;;6.40;1.40;;;15.10;99.90;;;;;;5053094;28;20145;-58
2022/07/16 05:45:15;;;;;;;9.50;1.35;;;15.20;99.90;;;;;;5054417;28;20194;-58
2022/07/16 05:47:41;;;;;;;12.57;1.80;;;15.30;99.90;;;;;;5054382;28;20040;-58
2022/07/16 05:50:07;;;;;;;7.30;1.50;;;15.40;99.90;;;;;;5054589;28;20476;-58
2022/07/16 05:52:33;;;;;;;9.32;1.90;;;15.40;99.90;;;;;;5069775;28;20040;-58
2022/07/16 05:54:58;;;;;;;5.90;1.30;;;15.30;99.90;;;;;;5073732;28;20040;-57
2022/07/16 05:57:24;;;;;;;8.90;1.15;;;15.40;99.90;;;;;;5074825;28;20037;-58
2022/07/16 05:59:50;;;;;;;6.80;1.20;;;15.50;99.90;;;;;;5073627;28;20041;-58
2022/07/16 06:02:15;;;;;;;10.55;1.35;;;15.60;99.90;;;;;;5074658;28;20075;-58
2022/07/16 06:04:41;;;;;;;7.20;1.40;;;15.60;99.90;;;;;;5074859;28;20043;-57
2022/07/16 06:07:07;;;;;;;10.88;1.33;;;15.80;99.90;;;;;;5074854;28;20041;-58
2022/07/16 06:09:32;;;;;;;8.95;1.45;;;15.80;99.90;;;;;;5074106;28;20480;-58
2022/07/16 06:11:58;;;;;;;7.97;1.00;;;15.90;99.90;;;;;;5073479;28;20346;-58
2022/07/16 06:14:25;;;;;;;10.73;1.42;;;16.00;99.90;;;;;;5073444;28;20040;-58
2022/07/16 06:16:51;;;;;;;6.55;1.20;;;15.90;99.90;;;;;;5074236;28;20535;-58
2022/07/16 06:19:16;;;;;;;6.95;1.23;;;16.00;99.90;;;;;;5073453;28;20076;-57
2022/07/16 06:21:42;;;;;;;7.72;1.20;;;16.10;99.90;;;;;;5058757;28;20041;-58
2022/07/16 06:24:08;;;;;;;6.03;0.90;;;16.20;99.90;;;;;;5052987;28;20068;-57
2022/07/16 06:26:33;;;;;;;8.10;1.00;;;16.20;99.90;;;;;;5054463;28;20053;-58
2022/07/16 06:28:59;;;;;;;6.68;1.10;;;16.20;99.90;;;;;;5054545;28;20043;-58
2022/07/16 06:31:25;;;;;;;6.10;1.27;;;16.20;99.90;;;;;;5054246;28;20397;-58
2022/07/16 06:33:50;;;;;;;5.70;1.10;;;16.30;99.90;;;;;;5069575;28;20037;-57
2022/07/16 06:36:16;;;;;;;7.25;1.15;;;16.20;99.90;;;;;;5054147;28;20069;-58
2022/07/16 06:38:42;;;;;;;5.47;1.00;;;16.20;99.90;;;;;;5054203;28;20095;-58
2022/07/16 06:41:08;;;;;;;5.68;1.05;;;16.20;99.90;;;;;;5054069;28;20037;-58
2022/07/16 06:43:33;;;;;;;8.38;1.30;;;16.30;99.90;;;;;;5054352;28;20083;-58
2022/07/16 06:45:59;;;;;;;8.43;1.38;;;16.30;99.90;;;;;;5054229;28;20444;-58
2022/07/16 06:48:25;;;;;;;6.15;1.02;;;16.40;99.90;;;;;;5054062;28;20052;-58
2022/07/16 06:50:50;;;;;;;6.97;1.20;;;16.50;99.90;;;;;;5054107;28;20389;-58
2022/07/16 06:53:16;;;;;;;7.07;1.23;;;16.50;99.90;;;;;;5054015;28;20120;-58
2022/07/16 06:55:42;;;;;;;4.53;1.35;;;16.50;99.90;;;;;;5053900;28;20126;-58
2022/07/16 06:58:09;;;;;;;6.70;1.30;;;16.50;99.90;;;;;;5053632;28;20497;-58
2022/07/16 07:00:34;;;;;;;6.90;1.02;;;16.30;99.90;;;;;;5053797;28;20052;-57
2022/07/16 07:03:00;;;;;;;5.82;1.25;;;16.00;99.90;;;;;;5052433;28;20044;-58
2022/07/16 07:05:26;;;;;;;6.45;1.23;;;15.90;99.90;;;;;;5053485;28;20041;-58
2022/07/16 07:07:51;;;;;;;5.85;1.10;;;15.80;99.90;;;;;;5053508;28;20040;-58
2022/07/16 07:10:19;;;;;;;8.05;0.98;;;16.00;99.90;;;;;;5053774;28;20029;-58
2022/07/16 07:12:45;;;;;;;7.65;1.23;;;16.10;99.90;;;;;;5053455;28;20090;-58
2022/07/16 07:15:11;;;;;;;7.85;1.40;;;16.30;99.90;;;;;;5053347;28;20120;-58
2022/07/16 07:17:37;;;;;;;5.03;0.82;;;16.40;99.90;;;;;;5068622;28;20124;-57
2022/07/16 07:20:05;;;;;;;5.50;0.93;;;16.50;99.90;;;;;;5051608;28;20037;-58
2022/07/16 07:22:31;;;;;;;6.75;1.20;;;16.70;99.90;;;;;;5033247;28;20091;-58
2022/07/16 07:24:56;;;;;;;7.35;1.08;;;16.90;99.90;;;;;;5033152;28;20077;-58
2022/07/16 07:27:22;;;;;;;7.30;1.45;;;17.00;99.90;;;;;;5033362;28;20521;-58
2022/07/16 07:29:48;;;;;;;5.03;1.15;;;17.30;99.90;;;;;;5033151;28;20037;-58
2022/07/16 07:32:14;;;;;;;7.13;1.13;;;17.50;99.90;;;;;;5033203;28;20039;-58
2022/07/16 07:34:40;;;;;;;9.48;1.40;;;17.40;99.90;;;;;;5033428;28;20108;-58
2022/07/16 07:37:06;;;;;;;6.75;1.00;;;17.20;99.90;;;;;;5031715;28;20054;-59
2022/07/16 07:39:31;;;;;;;5.10;0.88;;;16.90;99.90;;;;;;5033168;28;20033;-57
2022/07/16 07:41:57;;;;;;;8.80;1.83;;;16.50;99.90;;;;;;5033199;28;20037;-57
2022/07/16 07:44:22;;;;;;;4.10;0.80;;;16.50;99.90;;;;;;5032930;28;20102;-58
2022/07/16 07:46:48;;;;;;;5.30;1.05;;;16.70;99.90;;;;;;5033022;28;20048;-58
2022/07/16 07:49:14;;;;;;;5.38;1.00;;;16.90;99.90;;;;;;5033132;28;20444;-58
2022/07/16 07:51:39;;;;;;;4.90;1.30;;;17.00;99.90;;;;;;5032855;28;20033;-58
2022/07/16 07:54:05;;;;;;;6.25;1.10;;;17.10;99.90;;;;;;5033092;28;20081;-58
2022/07/16 07:56:31;;;;;;;6.68;1.00;;;17.10;99.90;;;;;;5032995;28;20072;-58
2022/07/16 07:58:56;;;;;;;6.05;1.05;;;17.20;99.90;;;;;;5032674;28;20135;-58
2022/07/16 08:01:22;;;;;;;6.15;1.10;;;17.30;99.90;;;;;;5032710;28;20092;-58
2022/07/16 08:03:48;;;;;;;9.50;2.25;;;17.40;99.90;;;;;;5032784;28;20042;-58
2022/07/16 08:06:13;;;;;;;7.25;1.02;;;17.10;99.90;;;;;;5032769;28;20474;-57
2022/07/16 08:08:39;;;;;;;6.72;1.10;;;16.80;99.90;;;;;;5032608;28;20486;-58
2022/07/16 08:11:05;;;;;;;6.60;1.15;;;16.90;99.90;;;;;;5032748;28;20038;-58
2022/07/16 08:13:30;;;;;;;7.55;1.42;;;16.90;99.90;;;;;;5032531;28;20053;-58
2022/07/16 08:15:56;;;;;;;8.05;1.30;;;16.80;99.90;;;;;;5032590;28;20041;-58
2022/07/16 08:18:22;;;;;;;9.60;2.08;;;16.80;99.90;;;;;;5047871;28;20540;-58
2022/07/16 08:20:47;;;;;;;6.43;1.30;;;16.80;99.90;;;;;;5040630;28;20413;-58
2022/07/16 08:23:13;;;;;;;7.05;1.33;;;17.00;99.90;;;;;;5052164;28;20397;-57
2022/07/16 08:25:58;;;;;;;6.50;1.10;;;17.30;99.90;;;;;;5052092;28;20049;-58
2022/07/16 08:28:24;;;;;;;6.25;1.25;;;17.60;99.90;;;;;;5052122;28;20091;-58
2022/07/16 08:30:50;;;;;;;10.73;1.65;;;17.30;99.90;;;;;;5052176;28;20055;-58
2022/07/16 08:33:15;;;;;;;7.03;1.15;;;17.20;99.90;;;;;;5050302;28;20079;-58
2022/07/16 08:35:41;;;;;;;5.72;1.10;;;17.10;99.90;;;;;;5050748;28;20091;-57
2022/07/16 08:38:06;;;;;;;6.13;1.15;;;17.50;99.90;;;;;;5052029;28;20048;-58
2022/07/16 08:40:32;;;;;;;10.10;1.35;;;17.60;99.90;;;;;;5052142;28;20037;-58
2022/07/16 08:42:59;;;;;;;4.80;0.90;;;17.80;99.90;;;;;;5052236;28;20045;-59
2022/07/16 08:45:25;;;;;;;5.72;0.90;;;17.70;99.90;;;;;;5051826;28;20048;-58
2022/07/16 08:47:52;;;;;;;4.90;1.10;;;17.90;99.90;;;;;;5051862;28;20041;-58
2022/07/16 08:50:18;;;;;;;4.45;1.23;;;18.20;99.90;;;;;;5052213;28;20107;-57
2022/07/16 08:52:51;;;;;;;6.82;1.40;;;17.80;99.90;;;;;;5052113;28;20385;-58
2022/07/16 08:55:17;;;;;;;8.13;1.60;;;17.90;99.90;;;;;;5051820;28;20041;-58
2022/07/16 08:57:48;;;;;;;6.32;1.10;;;17.90;99.90;;;;;;5051812;28;20048;-58
2022/07/16 09:00:14;;;;;;;7.15;1.73;;;17.60;99.90;;;;;;5067260;28;20052;-58
2022/07/16 09:02:40;;;;;;;5.55;0.90;;;17.80;99.90;;;;;;5052199;28;20041;-58
2022/07/16 09:05:06;;;;;;;7.22;1.48;;;18.00;99.90;;;;;;5051643;28;20033;-58
2022/07/16 09:07:32;;;;;;;6.45;1.23;;;18.10;99.90;;;;;;5051724;28;20126;-58
2022/07/16 09:09:57;;;;;;;8.38;1.40;;;18.30;99.90;;;;;;5051754;28;20078;-58
2022/07/16 09:12:40;;;;;;;5.10;1.50;;;18.30;99.90;;;;;;5052029;28;20029;-58
2022/07/16 09:15:30;;;;;;;6.47;1.40;;;17.80;99.90;;;;;;5051859;28;20063;-59
2022/07/16 09:18:12;;;;;;;7.28;1.25;;;17.40;99.90;;;;;;5052012;28;20041;-58
2022/07/16 09:20:41;;;;;;;6.25;1.52;;;17.50;99.90;;;;;;5045088;28;20099;-58
2022/07/16 09:23:17;;;;;;;8.10;1.35;;;17.90;99.90;;;;;;5031856;28;20175;-57
2022/07/16 09:26:06;;;;;;;9.05;1.65;;;18.30;99.90;;;;;;5031575;28;20088;-59
2022/07/16 09:28:50;;;;;;;5.30;1.20;;;18.60;99.90;;;;;;5031925;28;20045;-59
2022/07/16 09:31:40;;;;;;;8.70;1.42;;;18.90;99.90;;;;;;5031685;28;20034;-59
2022/07/16 09:34:11;;;;;;;6.43;1.20;;;19.00;99.90;;;;;;5046869;28;20120;-58
2022/07/16 09:36:40;;;;;;;6.88;1.35;;;18.70;99.90;;;;;;5031769;28;20512;-57
2022/07/16 09:39:07;;;;;;;7.32;1.38;;;18.50;99.90;;;;;;5031352;28;20132;-57
2022/07/16 09:41:44;;;;;;;9.50;1.90;;;18.80;99.90;;;;;;5047136;28;20052;-57
2022/07/16 09:44:19;;;;;;;6.60;1.10;;;18.90;99.90;;;;;;5031708;28;20046;-58
2022/07/16 09:47:14;;;;;;;5.55;0.88;;;18.40;99.90;;;;;;5050548;28;20081;-58
2022/07/16 09:49:49;;;;;;;6.47;1.27;;;18.50;99.90;;;;;;5034401;28;20107;-57
2022/07/16 09:52:30;;;;;;;5.65;1.08;;;18.20;99.90;;;;;;5035318;28;20446;-57
2022/07/16 09:54:57;;;;;;;7.30;1.65;;;17.80;99.90;;;;;;5035141;28;20037;-57
2022/07/16 09:57:25;;;;;;;4.95;1.30;;;18.10;99.90;;;;;;5034133;28;20405;-57
2022/07/16 09:59:52;;;;;;;7.00;1.00;;;18.00;99.90;;;;;;5050565;28;20051;-57
2022/07/16 10:02:18;;;;;;;7.75;1.10;;;18.10;99.90;;;;;;5034951;28;20494;-58
2022/07/16 10:04:43;;;;;;;6.78;1.05;;;18.20;99.90;;;;;;5035094;28;20038;-58
2022/07/16 10:07:09;;;;;;;7.60;1.15;;;18.10;99.90;;;;;;5034701;28;20037;-58
2022/07/16 10:09:35;;;;;;;5.72;1.20;;;18.00;99.90;;;;;;5034936;28;20041;-57
2022/07/16 10:12:05;;;;;;;4.43;1.05;;;18.30;99.90;;;;;;5050103;28;20045;-58
2022/07/16 10:14:34;;;;;;;5.28;0.90;;;18.50;99.90;;;;;;5034581;28;20436;-57
2022/07/16 10:17:00;;;;;;;10.02;1.33;;;18.20;99.90;;;;;;5034887;28;20049;-57
2022/07/16 10:19:36;;;;;;;7.30;1.30;;;18.10;99.90;;;;;;5034684;28;20447;-58
2022/07/16 10:22:35;;;;;;;5.07;1.30;;;18.30;99.90;;;;;;5051779;28;20065;-58
2022/07/16 10:25:09;;;;;;;7.90;1.10;;;17.80;99.90;;;;;;5049802;28;20053;-57
2022/07/16 10:27:35;;;;;;;7.13;1.30;;;18.00;99.90;;;;;;5054256;28;20052;-57
2022/07/16 10:30:10;;;;;;;5.90;1.48;;;18.20;99.90;;;;;;5054454;28;20060;-57
2022/07/16 10:33:02;;;;;;;7.80;1.45;;;18.20;99.90;;;;;;5069708;28;20045;-58
2022/07/16 10:35:38;;;;;;;;;;;18.10;99.90;;;;;;5054644;28;20051;-57
2022/07/16 10:38:14;;;;;;;5.53;1.27;;;18.50;99.90;;;;;;5054096;28;20365;-57
2022/07/16 10:40:42;;;;;;;5.30;1.20;;;18.60;99.90;;;;;;5054058;28;20076;-57
2022/07/16 10:43:21;;;;;;;6.43;1.27;;;18.50;99.90;;;;;;5069600;28;20071;-57
2022/07/16 10:45:58;;;;;;;8.05;1.30;;;18.60;99.90;;;;;;5053921;28;20033;-57
2022/07/16 10:48:29;;;;;;;9.75;1.08;;;18.60;99.90;;;;;;5053918;28;20045;-57
2022/07/16 10:51:18;;;;;;;4.55;1.10;;;18.60;99.90;;;;;;5053846;28;20037;-57
2022/07/16 10:54:01;;;;;;;9.38;1.98;;;19.00;99.90;;;;;;5053981;28;20048;-57
2022/07/16 10:56:45;;;;;;;8.45;1.55;;;19.10;99.90;;;;;;5052427;28;20040;-57
2022/07/16 10:59:13;;;;;;;6.95;1.20;;;18.80;99.90;;;;;;5053868;28;20408;-58
2022/07/16 11:01:41;;;;;;;8.35;1.30;;;19.10;99.90;;;;;;5052819;28;20041;-58
2022/07/16 11:04:09;;;;;;;7.78;1.08;;;18.80;99.90;;;;;;5053982;28;20041;-58
2022/07/16 11:06:35;;;;;;;8.15;1.60;;;18.80;99.90;;;;;;5053754;28;20033;-57
2022/07/16 11:09:05;;;;;;;6.65;1.27;;;19.00;99.90;;;;;;5053365;28;20105;-57
2022/07/16 11:11:39;;;;;;;8.55;1.30;;;19.10;99.90;;;;;;5053424;28;20041;-57
2022/07/16 11:14:07;;;;;;;10.05;1.42;;;18.90;99.90;;;;;;5053658;28;20037;-58
2022/07/16 11:16:33;;;;;;;8.32;1.20;;;19.00;99.90;;;;;;5053561;28;20029;-58
2022/07/16 11:19:01;;;;;;;7.22;1.20;;;19.10;99.90;;;;;;5053552;28;20113;-57
2022/07/16 11:21:27;;;;;;;8.85;1.88;;;18.60;99.90;;;;;;5039982;28;20433;-58
2022/07/16 11:23:59;;;;;;;6.40;1.48;;;18.60;99.90;;;;;;5033394;28;20663;-57
2022/07/16 11:26:26;;;;;;;9.05;1.50;;;18.40;99.90;;;;;;5048499;28;20132;-58
2022/07/16 11:29:03;;;;;;;8.02;1.83;;;18.30;99.90;;;;;;5033510;28;20045;-58
2022/07/16 11:31:35;;;;;;;7.20;1.30;;;18.60;99.90;;;;;;5033547;28;20068;-58
2022/07/16 11:34:03;;;;;;;4.80;1.00;;;18.80;99.90;;;;;;5031962;28;20041;-58
2022/07/16 11:36:30;;;;;;;6.30;1.20;;;18.50;99.90;;;;;;5033528;28;20041;-58
2022/07/16 11:39:02;;;;;;;7.82;1.50;;;18.30;99.90;;;;;;5033086;28;20502;-57
2022/07/16 11:41:28;;;;;;;7.70;1.50;;;18.30;99.90;;;;;;5033158;28;20059;-57
2022/07/16 11:43:55;;;;;;;7.38;1.35;;;18.30;99.90;;;;;;5033325;28;20049;-58
2022/07/16 11:46:28;;;;;;;6.03;1.23;;;18.20;99.90;;;;;;5032208;28;20107;-57
2022/07/16 11:48:54;;;;;;;6.85;1.00;;;18.20;99.90;;;;;;5033636;28;20052;-57
2022/07/16 11:51:20;;;;;;;8.93;1.55;;;18.20;99.90;;;;;;5032811;28;20045;-57
2022/07/16 11:53:49;;;;;;;7.40;1.50;;;18.60;99.90;;;;;;5032727;28;20048;-58
2022/07/16 11:56:39;;;;;;;6.70;1.20;;;18.60;99.90;;;;;;5032980;28;20038;-57
2022/07/16 11:59:21;;;;;;;10.52;1.50;;;19.10;99.90;;;;;;5032738;28;20490;-57
2022/07/16 12:01:55;;;;;;;12.55;1.50;;;19.00;99.90;;;;;;5048314;28;20117;-59
2022/07/16 12:04:38;;;;;;;9.40;1.30;;;18.60;99.90;;;;;;5047060;28;20041;-57
2022/07/16 12:07:07;;;;;;;8.50;1.42;;;18.30;99.90;;;;;;5047268;28;20049;-57
2022/07/16 12:09:42;;;;;;;5.78;1.50;;;18.30;99.90;;;;;;5032474;28;20045;-57
2022/07/16 12:12:16;;;;;;;9.27;1.50;;;18.20;99.90;;;;;;5032720;28;20043;-57
2022/07/16 12:14:46;;;;;;;6.93;1.02;;;18.60;99.90;;;;;;5032577;28;20059;-58
2022/07/16 12:17:46;;;;;;;12.15;1.80;;;19.00;99.90;;;;;;5032368;28;20478;-57
2022/07/16 12:20:19;;;;;;;7.55;1.33;;;18.50;99.90;;;;;;5035467;28;20041;-58
2022/07/16 12:23:11;;;;;;;8.63;1.20;;;18.40;99.90;;;;;;5052397;28;20405;-57
2022/07/16 12:25:38;;;;;;;;;;;18.90;99.90;;;;;;5051158;28;20045;-58
2022/07/16 12:28:17;;;;;;;7.35;1.30;;;19.30;99.90;;;;;;5051056;28;20389;-58
2022/07/16 12:30:53;;;;;;;7.90;1.20;;;19.00;99.90;;;;;;5052409;28;20045;-58
2022/07/16 12:33:18;;;;;;;5.70;1.10;;;18.70;99.90;;;;;;5052469;28;20103;-58
2022/07/16 12:35:53;;;;;;;6.50;1.20;;;18.60;99.90;;;;;;5051088;28;20045;-57
2022/07/16 12:38:56;;;;;;;5.68;1.20;;;18.90;99.90;;;;;;5067369;28;20580;-58
2022/07/16 12:41:31;;;;;;;6.55;1.20;;;19.00;99.90;;;;;;5052040;28;20049;-57
2022/07/16 12:44:00;;;;;;;7.15;1.42;;;18.70;99.90;;;;;;5052277;28;20041;-57
2022/07/16 12:46:31;;;;;;;8.30;1.40;;;18.50;99.90;;;;;;5052002;28;20052;-58
2022/07/16 12:49:03;;;;;;;6.65;1.20;;;18.70;99.90;;;;;;5052058;28;20036;-58
2022/07/16 12:51:32;;;;;;;9.25;1.33;;;18.80;99.90;;;;;;5052168;28;20052;-58
2022/07/16 12:53:59;;;;;;;6.93;1.30;;;18.60;99.90;;;;;;5051896;28;20041;-57
2022/07/16 12:59:10;;;;;;;8.20;1.23;;;18.90;99.90;;;;;;5051961;28;20114;-58
2022/07/16 13:01:36;;;;;;;4.28;1.05;;;18.90;99.90;;;;;;5052099;28;20132;-58
2022/07/16 13:04:03;;;;;;;6.93;1.73;;;19.10;99.90;;;;;;5052023;28;20485;-58